Time;durP1;ratioP1;P1;durP2;ratioP2;P2;SDS_P1;SDS_P2;PMS_P1;PMS_P2;Temp;Humidity;BMP_temperature;BMP_pressure;BME280_temperature;BME280_humidity;BME280_pressure;Samples;Min_cycle;Max_cycle;Signal;HPM_P1;HPM_P2
2022/11/03 00:00:29;;;;;;;;;;;10.10;99.90;;;;;;5026717;28;19932;-70
2022/11/03 00:02:54;;;;;;;;;;;10.10;99.90;;;;;;5015814;28;19952;-70
2022/11/03 00:08:04;;;;;;;;;;;10.10;99.90;;;;;;5016840;28;19983;-70
2022/11/03 00:10:30;;;;;;;;;;;10.20;99.90;;;;;;5005950;28;20018;-70
2022/11/03 00:12:55;;;;;;;;;;;10.10;99.90;;;;;;5011987;28;19922;-70
2022/11/03 00:15:21;;;;;;;;;;;10.20;99.90;;;;;;5009355;28;19925;-70
2022/11/03 00:17:46;;;;;;;;;;;10.20;99.90;;;;;;5021824;28;19932;-70
2022/11/03 00:20:12;;;;;;;;;;;10.20;99.90;;;;;;5016657;28;19929;-70
2022/11/03 00:22:37;;;;;;;;;;;10.20;99.90;;;;;;5013676;28;19925;-70
2022/11/03 00:25:03;;;;;;;;;;;10.20;99.90;;;;;;5021498;28;19921;-70
2022/11/03 00:27:28;;;;;;;;;;;10.20;99.90;;;;;;5016710;28;19921;-70
2022/11/03 00:29:54;;;;;;;;;;;10.20;99.90;;;;;;5032948;28;19922;-70
2022/11/03 00:32:19;;;;;;;;;;;10.20;99.90;;;;;;5035382;28;19975;-70
2022/11/03 00:34:45;;;;;;;;;;;10.20;99.90;;;;;;5017221;28;19928;-70
2022/11/03 00:37:10;;;;;;;;;;;10.20;99.90;;;;;;5017277;28;20009;-70
2022/11/03 00:39:36;;;;;;;;;;;10.20;99.90;;;;;;5016496;28;19975;-70
2022/11/03 00:42:01;;;;;;;;;;;10.20;99.90;;;;;;5031854;28;20004;-70
2022/11/03 00:44:27;;;;;;;;;;;10.20;99.90;;;;;;5017066;28;19972;-70
2022/11/03 00:46:52;;;;;;;;;;;10.20;99.90;;;;;;5014966;28;19925;-70
2022/11/03 00:49:18;;;;;;;;;;;10.20;99.90;;;;;;5016697;28;20463;-70
2022/11/03 00:51:43;;;;;;;;;;;10.10;99.90;;;;;;5016682;28;19921;-70
2022/11/03 00:54:08;;;;;;;;;;;10.10;99.90;;;;;;5016687;28;19921;-70
2022/11/03 00:56:36;;;;;;;;;;;10.10;99.90;;;;;;5034809;28;20318;-70
2022/11/03 00:59:02;;;;;;;;;;;10.10;99.90;;;;;;5034319;28;19921;-70
2022/11/03 01:01:33;;;;;;;;;;;10.00;99.90;;;;;;5016609;28;19932;-70
2022/11/03 01:06:50;;;;;;;;;;;9.90;99.90;;;;;;5026218;28;19929;-70
2022/11/03 01:09:20;;;;;;;;;;;9.90;99.90;;;;;;5016764;28;19921;-70
2022/11/03 01:11:50;;;;;;;;;;;9.80;99.90;;;;;;5019486;28;20297;-71
2022/11/03 01:14:15;;;;;;;;;;;9.80;99.90;;;;;;5016144;28;19922;-70
2022/11/03 01:16:41;;;;;;;;;;;9.70;99.90;;;;;;5019559;28;19928;-70
2022/11/03 01:19:07;;;;;;;;;;;9.70;99.90;;;;;;5044308;28;20441;-70
2022/11/03 01:24:03;;;;;;;;;;;9.60;99.90;;;;;;5069940;28;19928;-71
2022/11/03 01:26:28;;;;;;;;;;;9.50;99.90;;;;;;5060357;28;19932;-70
2022/11/03 01:28:54;;;;;;;;;;;9.50;99.90;;;;;;5054542;28;20011;-71
2022/11/03 01:31:21;;;;;;;;;;;9.50;99.90;;;;;;5053400;28;19994;-71
2022/11/03 01:33:48;;;;;;;;;;;9.50;99.90;;;;;;5055833;28;19928;-71
2022/11/03 01:36:14;;;;;;;;;;;9.40;99.90;;;;;;5048096;28;20318;-71
2022/11/03 01:38:40;;;;;;;;;;;9.40;99.90;;;;;;5070113;28;19928;-71
2022/11/03 01:41:07;;;;;;;;;;;9.40;99.90;;;;;;5054031;28;19924;-70
2022/11/03 01:43:33;;;;;;;;;;;9.40;99.90;;;;;;5054212;28;20277;-70
2022/11/03 01:46:04;;;;;;;;;;;9.40;99.90;;;;;;5052884;28;19924;-71
2022/11/03 01:48:31;;;;;;;;;;;9.40;99.90;;;;;;5045359;28;20441;-71
2022/11/03 01:50:57;;;;;;;;;;;9.40;99.90;;;;;;5055568;28;19921;-71
2022/11/03 01:53:22;;;;;;;;;;;9.40;99.90;;;;;;5054669;28;19999;-71
2022/11/03 01:55:49;;;;;;;;;;;9.40;99.90;;;;;;5027857;28;19935;-71
2022/11/03 01:58:20;;;;;;;;;;;9.30;99.90;;;;;;5045407;28;19930;-70
2022/11/03 02:00:47;;;;;;;;;;;9.30;99.90;;;;;;5034241;28;20255;-70
2022/11/03 02:03:13;;;;;;;;;;;9.30;99.90;;;;;;5050643;28;19959;-71
2022/11/03 02:05:39;;;;;;;;;;;9.30;99.90;;;;;;5054953;28;19928;-70
2022/11/03 02:08:10;;;;;;;;;;;9.30;99.90;;;;;;5071974;28;19925;-70
2022/11/03 02:10:36;;;;;;;;;;;9.30;99.90;;;;;;5053928;28;19925;-70
2022/11/03 02:13:06;;;;;;;;;;;9.30;99.90;;;;;;5070091;28;20372;-70
2022/11/03 02:15:32;;;;;;;;;;;9.40;99.90;;;;;;5067237;28;20370;-70
2022/11/03 02:17:58;;;;;;;;;;;9.30;99.90;;;;;;5053121;28;19920;-71
2022/11/03 02:20:25;;;;;;;;;;;9.30;99.90;;;;;;5055266;28;20435;-71
2022/11/03 02:22:57;;;;;;;;;;;9.30;99.90;;;;;;5053494;28;19932;-71
2022/11/03 02:25:41;;;;;;;;;;;9.40;99.90;;;;;;5053929;28;20104;-70
2022/11/03 02:28:06;;;;;;;;;;;9.30;99.90;;;;;;5047991;28;20377;-70
2022/11/03 02:31:04;;;;;;;;;;;9.30;99.90;;;;;;5051736;28;19925;-70
2022/11/03 02:33:52;;;;;;;;;;;9.40;99.90;;;;;;5033625;28;19921;-71
2022/11/03 02:36:24;;;;;;;;;;;9.40;99.90;;;;;;5046365;28;19920;-71
2022/11/03 02:38:59;;;;;;;;;;;9.40;99.90;;;;;;5069962;28;19920;-71
2022/11/03 02:41:26;;;;;;;;;;;9.40;99.90;;;;;;5038277;28;19997;-71
2022/11/03 02:43:51;;;;;;;;;;;9.40;99.90;;;;;;5050066;28;19925;-71
2022/11/03 02:46:17;;;;;;;;;;;9.40;99.90;;;;;;5052343;28;19924;-70
2022/11/03 02:48:43;;;;;;;;;;;9.40;99.90;;;;;;5033414;28;19921;-71
2022/11/03 02:51:08;;;;;;;;;;;9.40;99.90;;;;;;5054157;28;19924;-71
2022/11/03 02:53:42;;;;;;;;;;;9.40;99.90;;;;;;5053865;28;20439;-71
2022/11/03 02:56:14;;;;;;;;;;;9.50;99.90;;;;;;5054206;28;19928;-72
2022/11/03 02:59:15;;;;;;;;;;;9.50;99.90;;;;;;5053017;28;19966;-71
2022/11/03 03:01:47;;;;;;;;;;;9.50;99.90;;;;;;5005778;28;19926;-71
2022/11/03 03:04:23;;;;;;;;;;;9.50;99.90;;;;;;5050488;28;19929;-71
2022/11/03 03:06:54;;;;;;;;;;;9.40;99.90;;;;;;5069379;28;19927;-71
2022/11/03 03:09:43;;;;;;;;;;;9.50;99.90;;;;;;5054028;28;19960;-71
2022/11/03 03:12:10;;;;;;;;;;;9.40;99.90;;;;;;5048276;28;19921;-71
2022/11/03 03:14:37;;;;;;;;;;;9.40;99.90;;;;;;5053548;28;20019;-71
2022/11/03 03:17:08;;;;;;;;;;;9.40;99.90;;;;;;5066095;28;19943;-70
2022/11/03 03:19:40;;;;;;;;;;;9.40;99.90;;;;;;5047609;28;19921;-70
2022/11/03 03:22:20;;;;;;;;;;;9.50;99.90;;;;;;5041558;28;19928;-71
2022/11/03 03:24:58;;;;;;;;;;;9.50;99.90;;;;;;5050470;28;19960;-71
2022/11/03 03:27:25;;;;;;;;;;;9.50;99.90;;;;;;5053886;28;19956;-70
2022/11/03 03:29:53;;;;;;;;;;;9.50;99.90;;;;;;5069843;28;19927;-71
2022/11/03 03:32:19;;;;;;;;;;;9.50;99.90;;;;;;5058537;28;19956;-71
2022/11/03 03:34:46;;;;;;;;;;;9.60;99.90;;;;;;5040309;28;20358;-71
2022/11/03 03:37:12;;;;;;;;;;;9.60;99.90;;;;;;5053619;28;20369;-71
2022/11/03 03:39:40;;;;;;;;;;;9.60;99.90;;;;;;5052418;28;19951;-71
2022/11/03 03:42:07;;;;;;;;;;;9.60;99.90;;;;;;5071579;28;19929;-70
2022/11/03 03:44:33;;;;;;;;;;;9.60;99.90;;;;;;5051780;28;19942;-71
2022/11/03 03:46:59;;;;;;;;;;;9.60;99.90;;;;;;5071948;28;19920;-71
2022/11/03 03:49:25;;;;;;;;;;;9.60;99.90;;;;;;5050669;28;19942;-71
2022/11/03 03:51:51;;;;;;;;;;;9.60;99.90;;;;;;5041944;28;20083;-71
2022/11/03 03:54:16;;;;;;;;;;;9.60;99.90;;;;;;5047688;28;19927;-71
2022/11/03 03:56:44;;;;;;;;;;;9.50;99.90;;;;;;5063928;28;19955;-71
2022/11/03 03:59:10;;;;;;;;;;;9.50;99.90;;;;;;5053850;28;19920;-71
2022/11/03 04:01:35;;;;;;;;;;;9.40;99.90;;;;;;5053349;28;19932;-70
2022/11/03 04:04:01;;;;;;;;;;;9.40;99.90;;;;;;5052849;28;19924;-70
2022/11/03 04:06:26;;;;;;;;;;;9.40;99.90;;;;;;5048518;28;20011;-71
2022/11/03 04:08:52;;;;;;;;;;;9.40;99.90;;;;;;5070323;28;19977;-70
2022/11/03 04:22:17;;;;;;;;;;;9.20;99.90;;;;;;5070944;28;19929;-71
2022/11/03 04:24:44;;;;;;;;;;;9.20;99.90;;;;;;5048689;28;19940;-71
2022/11/03 04:27:20;;;;;;;;;;;9.20;99.90;;;;;;5035753;28;20007;-71
2022/11/03 04:29:45;;;;;;;;;;;9.20;99.90;;;;;;5053103;28;19920;-70
2022/11/03 04:32:15;;;;;;;;;;;9.20;99.90;;;;;;5050049;28;19921;-71
2022/11/03 04:34:40;;;;;;;;;;;9.10;99.90;;;;;;5053155;28;20425;-70
2022/11/03 04:37:11;;;;;;;;;;;9.10;99.90;;;;;;5031741;28;20003;-70
2022/11/03 04:39:36;;;;;;;;;;;9.10;99.90;;;;;;5052106;28;19931;-71
2022/11/03 04:42:05;;;;;;;;;;;9.10;99.90;;;;;;5043463;28;20324;-71
2022/11/03 04:44:30;;;;;;;;;;;9.10;99.90;;;;;;5054252;28;19931;-70
2022/11/03 04:46:56;;;;;;;;;;;9.10;99.90;;;;;;5056157;28;19920;-70
2022/11/03 04:49:22;;;;;;;;;;;9.10;99.90;;;;;;5074894;28;19978;-71
2022/11/03 04:51:48;;;;;;;;;;;9.20;99.90;;;;;;5056735;28;19921;-70
2022/11/03 04:54:22;;;;;;;;;;;9.20;99.90;;;;;;5074266;28;19928;-71
2022/11/03 04:56:48;;;;;;;;;;;9.20;99.90;;;;;;5072599;28;20702;-70
2022/11/03 04:59:14;;;;;;;;;;;9.30;99.90;;;;;;5055232;28;19951;-70
2022/11/03 05:01:41;;;;;;;;;;;9.30;99.90;;;;;;5070178;28;19976;-70
2022/11/03 05:04:10;;;;;;;;;;;9.30;99.90;;;;;;5055585;28;20024;-71
2022/11/03 05:06:36;;;;;;;;;;;9.30;99.90;;;;;;5054275;28;19928;-71
2022/11/03 05:09:06;;;;;;;;;;;9.30;99.90;;;;;;5056013;28;20419;-71
2022/11/03 05:11:37;;;;;;;;;;;9.30;99.90;;;;;;5055064;28;19921;-71
2022/11/03 05:14:23;;;;;;;;;;;9.30;99.90;;;;;;5032371;28;19978;-71
2022/11/03 05:16:49;;;;;;;;;;;9.30;99.90;;;;;;5068595;28;19924;-71
2022/11/03 05:19:23;;;;;;;;;;;9.30;99.90;;;;;;5072786;28;20412;-71
2022/11/03 05:21:49;;;;;;;;;;;9.30;99.90;;;;;;5055610;28;20358;-71
2022/11/03 05:24:15;;;;;;;;;;;9.30;99.90;;;;;;5045057;28;19929;-72
2022/11/03 05:26:41;;;;;;;;;;;9.30;99.90;;;;;;5069937;28;19924;-71
2022/11/03 05:29:14;;;;;;;;;;;9.30;99.90;;;;;;5053534;28;19927;-71
2022/11/03 05:31:41;;;;;;;;;;;9.30;99.90;;;;;;5051804;28;19925;-71
2022/11/03 05:34:25;;;;;;;;;;;9.20;99.90;;;;;;5051009;28;19990;-71
2022/11/03 05:36:50;;;;;;;;;;;9.30;99.90;;;;;;5045062;28;20388;-71
2022/11/03 05:39:24;;;;;;;;;;;9.30;99.90;;;;;;5054330;28;19924;-71
2022/11/03 05:41:50;;;;;;;;;;;9.30;99.90;;;;;;5061061;28;20002;-71
2022/11/03 05:44:33;;;;;;;;;;;9.30;99.90;;;;;;5058063;28;19929;-71
2022/11/03 05:46:59;;;;;;;;;;;9.30;99.90;;;;;;5050669;28;19928;-71
2022/11/03 05:49:26;;;;;;;;;;;9.30;99.90;;;;;;5052806;28;19928;-71
2022/11/03 05:51:51;;;;;;;;;;;9.30;99.90;;;;;;5054783;28;19920;-71
2022/11/03 05:54:25;;;;;;;;;;;9.30;99.90;;;;;;5055281;28;19967;-71
2022/11/03 05:56:50;;;;;;;;;;;9.30;99.90;;;;;;5058751;28;20288;-71
2022/11/03 05:59:22;;;;;;;;;;;9.40;99.90;;;;;;5053108;28;19921;-71
2022/11/03 06:01:48;;;;;;;;;;;9.40;99.90;;;;;;5052165;28;19943;-71
2022/11/03 06:04:42;;;;;;;;;;;9.40;99.90;;;;;;5073125;28;20278;-71
2022/11/03 06:07:21;;;;;;;;;;;9.30;99.90;;;;;;5035878;28;20445;-71
2022/11/03 06:09:47;;;;;;;;;;;9.40;99.90;;;;;;5055444;28;19931;-71
2022/11/03 06:12:16;;;;;;;;;;;9.30;99.90;;;;;;5055198;28;19924;-71
2022/11/03 06:14:42;;;;;;;;;;;9.30;99.90;;;;;;5055256;28;19952;-71
2022/11/03 06:17:17;;;;;;;;;;;9.30;99.90;;;;;;5035761;28;19967;-71
2022/11/03 06:19:47;;;;;;;;;;;9.30;99.90;;;;;;5061829;28;19928;-71
2022/11/03 06:22:22;;;;;;;;;;;9.30;99.90;;;;;;5048825;28;19929;-71
2022/11/03 06:24:48;;;;;;;;;;;9.40;99.90;;;;;;5058783;28;20019;-71
2022/11/03 06:27:23;;;;;;;;;;;9.30;99.90;;;;;;5055176;28;20020;-71
2022/11/03 06:29:51;;;;;;;;;;;9.30;99.90;;;;;;5054845;28;19921;-71
2022/11/03 06:32:16;;;;;;;;;;;9.30;99.90;;;;;;5052097;28;19966;-71
2022/11/03 06:34:44;;;;;;;;;;;9.30;99.90;;;;;;5041399;28;19947;-71
2022/11/03 06:37:14;;;;;;;;;;;9.30;99.90;;;;;;5059005;28;20017;-71
2022/11/03 06:39:40;;;;;;;;;;;9.30;99.90;;;;;;5072758;28;19925;-71
2022/11/03 06:42:12;;;;;;;;;;;9.30;99.90;;;;;;5054728;28;19932;-71
2022/11/03 06:44:42;;;;;;;;;;;9.30;99.90;;;;;;5067294;28;19959;-71
2022/11/03 06:47:22;;;;;;;;;;;9.30;99.90;;;;;;5048033;28;19925;-71
2022/11/03 06:49:48;;;;;;;;;;;9.30;99.90;;;;;;5053323;28;19924;-71
2022/11/03 06:52:19;;;;;;;;;;;9.30;99.90;;;;;;5053868;28;19924;-71
2022/11/03 06:54:49;;;;;;;;;;;9.30;99.90;;;;;;5054673;28;19963;-71
2022/11/03 06:57:16;;;;;;;;;;;9.40;99.90;;;;;;5054574;28;20619;-71
2022/11/03 06:59:41;;;;;;;;;;;9.40;99.90;;;;;;5050571;28;19921;-71
2022/11/03 07:02:24;;;;;;;;;;;9.40;99.90;;;;;;5047740;28;19925;-70
2022/11/03 07:04:50;;;;;;;;;;;9.40;99.90;;;;;;5053647;28;20046;-71
2022/11/03 07:07:24;;;;;;;;;;;9.40;99.90;;;;;;5054275;28;19924;-71
2022/11/03 07:09:50;;;;;;;;;;;9.50;99.90;;;;;;5054114;28;19986;-71
2022/11/03 07:12:15;;;;;;;;;;;9.50;99.90;;;;;;5036716;28;20361;-71
2022/11/03 07:14:42;;;;;;;;;;;9.60;99.90;;;;;;5069097;28;19924;-71
2022/11/03 07:17:18;;;;;;;;;;;9.60;99.90;;;;;;5041046;28;20282;-71
2022/11/03 07:19:44;;;;;;;;;;;9.70;99.90;;;;;;5041921;28;20041;-71
2022/11/03 07:22:15;;;;;;;;;;;9.80;99.90;;;;;;5052150;28;20525;-71
2022/11/03 07:24:43;;;;;;;;;;;9.80;99.90;;;;;;5043417;28;19924;-71
2022/11/03 07:27:25;;;;;;;;;;;9.90;99.90;;;;;;5028054;28;19924;-71
2022/11/03 07:29:52;;;;;;;;;;;9.90;99.90;;;;;;5065463;28;19920;-71
2022/11/03 07:32:18;;;;;;;;;;;10.00;99.90;;;;;;5053309;28;19925;-71
2022/11/03 07:34:44;;;;;;;;;;;10.10;99.90;;;;;;5042325;28;19939;-71
2022/11/03 07:37:14;;;;;;;;;;;10.20;99.90;;;;;;5047502;28;19924;-71
2022/11/03 07:39:40;;;;;;;;;;;10.30;99.90;;;;;;5032430;28;19943;-71
2022/11/03 07:42:14;;;;;;;;;;;10.30;99.90;;;;;;5049552;28;19999;-71
2022/11/03 07:44:39;;;;;;;;;;;10.30;99.90;;;;;;5049173;28;19943;-71
2022/11/03 07:47:05;;;;;;;;;;;10.40;99.90;;;;;;5050612;28;19928;-72
2022/11/03 07:49:30;;;;;;;;;;;10.50;99.90;;;;;;5059785;28;20007;-71
2022/11/03 07:51:57;;;;;;;;;;;10.50;99.90;;;;;;5043954;28;20378;-71
2022/11/03 07:54:26;;;;;;;;;;;10.60;99.90;;;;;;5048370;28;19970;-71
2022/11/03 07:56:54;;;;;;;;;;;10.70;99.90;;;;;;5053522;28;19920;-71
2022/11/03 07:59:23;;;;;;;;;;;10.80;99.90;;;;;;5049063;28;19920;-71
2022/11/03 08:01:49;;;;;;;;;;;10.90;99.90;;;;;;5045167;28;20353;-72
2022/11/03 08:04:26;;;;;;;;;;;10.90;99.90;;;;;;5048493;28;19932;-71
2022/11/03 08:06:51;;;;;;;;;;;11.00;99.90;;;;;;5057475;28;20462;-71
2022/11/03 08:09:17;;;;;;;;;;;11.10;99.90;;;;;;5039586;28;20011;-70
2022/11/03 08:11:43;;;;;;;;;;;11.20;99.90;;;;;;5035601;28;19971;-70
2022/11/03 08:14:09;;;;;;;;;;;11.30;99.90;;;;;;5053551;28;19920;-70
2022/11/03 08:16:35;;;;;;;;;;;11.30;99.90;;;;;;5066472;28;19932;-71
2022/11/03 08:19:00;;;;;;;;;;;11.40;99.90;;;;;;5039907;28;19931;-71
2022/11/03 08:21:26;;;;;;;;;;;11.50;99.90;;;;;;5055827;28;20995;-71
2022/11/03 08:23:51;;;;;;;;;;;11.50;99.90;;;;;;5050202;28;20047;-71
2022/11/03 08:26:17;;;;;;;;;;;11.60;99.90;;;;;;5060688;28;20286;-71
2022/11/03 08:28:42;;;;;;;;;;;11.70;99.90;;;;;;5056427;28;19920;-71
2022/11/03 08:31:08;;;;;;;;;;;11.80;99.90;;;;;;5064935;28;19920;-71
2022/11/03 08:33:34;;;;;;;;;;;11.90;99.90;;;;;;5061630;28;20349;-71
2022/11/03 08:36:00;;;;;;;;;;;11.90;99.90;;;;;;5045511;28;19976;-71
2022/11/03 08:38:26;;;;;;;;;;;12.00;99.90;;;;;;5052135;28;20385;-71
2022/11/03 08:40:53;;;;;;;;;;;12.00;99.90;;;;;;5072134;28;19921;-71
2022/11/03 08:43:18;;;;;;;;;;;12.00;99.90;;;;;;5044782;28;19986;-71
2022/11/03 08:45:44;;;;;;;;;;;12.00;99.90;;;;;;5053379;28;20346;-71
2022/11/03 08:48:10;;;;;;;;;;;12.10;99.90;;;;;;5066644;28;19928;-70
2022/11/03 08:50:36;;;;;;;;;;;12.00;99.90;;;;;;5050557;28;20309;-70
2022/11/03 08:53:01;;;;;;;;;;;12.10;99.90;;;;;;5049147;28;19930;-71
2022/11/03 08:55:27;;;;;;;;;;;12.10;99.90;;;;;;5051662;28;20014;-70
2022/11/03 08:57:52;;;;;;;;;;;12.10;99.90;;;;;;5048804;28;20247;-71
2022/11/03 09:00:18;;;;;;;;;;;12.10;99.90;;;;;;5036539;28;19925;-70
2022/11/03 09:02:43;;;;;;;;;;;12.20;99.90;;;;;;5072405;28;19986;-70
2022/11/03 09:05:09;;;;;;;;;;;12.30;99.90;;;;;;5074165;28;19920;-71
2022/11/03 09:07:35;;;;;;;;;;;12.40;99.90;;;;;;5040176;28;20441;-70
2022/11/03 09:10:00;;;;;;;;;;;12.40;99.90;;;;;;5069768;28;19964;-70
2022/11/03 09:12:26;;;;;;;;;;;12.40;99.90;;;;;;5074278;28;20274;-70
2022/11/03 09:14:51;;;;;;;;;;;12.50;99.90;;;;;;5064687;28;20043;-70
2022/11/03 09:17:17;;;;;;;;;;;12.60;99.90;;;;;;5072848;28;19920;-70
2022/11/03 09:19:42;;;;;;;;;;;12.70;99.90;;;;;;5051734;28;19924;-70
2022/11/03 09:22:08;;;;;;;;;;;12.70;99.90;;;;;;5074118;28;20429;-70
2022/11/03 09:24:33;;;;;;;;;;;12.80;99.90;;;;;;5046299;28;20285;-70
2022/11/03 09:26:59;;;;;;;;;;;12.90;99.90;;;;;;5047596;28;20548;-71
2022/11/03 09:29:24;;;;;;;;;;;12.90;99.90;;;;;;5055635;28;20333;-71
2022/11/03 09:31:50;;;;;;;;;;;13.00;99.90;;;;;;5066533;28;19925;-70
2022/11/03 09:34:15;;;;;;;;;;;13.00;99.90;;;;;;5055590;28;19932;-71
2022/11/03 09:36:41;;;;;;;;;;;13.10;99.90;;;;;;5050300;28;19921;-70
2022/11/03 09:39:06;;;;;;;;;;;13.10;99.90;;;;;;5036333;28;19974;-70
2022/11/03 09:41:31;;;;;;;;;;;13.10;99.90;;;;;;5055756;28;20012;-70
2022/11/03 09:43:57;;;;;;;;;;;13.20;99.90;;;;;;5049986;28;20270;-70
2022/11/03 09:46:24;;;;;;;;;;;13.30;99.90;;;;;;5042954;28;19924;-70
2022/11/03 09:48:49;;;;;;;;;;;13.40;99.90;;;;;;5054125;28;20011;-70
2022/11/03 09:51:17;;;;;;;;;;;13.40;99.90;;;;;;5054700;28;20596;-70
2022/11/03 09:53:43;;;;;;;;;;;13.50;99.90;;;;;;5049717;28;19924;-70
2022/11/03 09:56:09;;;;;;;;;;;13.60;99.90;;;;;;5055814;28;20342;-70
2022/11/03 09:58:34;;;;;;;;;;;13.70;99.90;;;;;;5055583;28;19927;-70
2022/11/03 10:01:00;;;;;;;;;;;13.90;99.90;;;;;;5054231;28;19925;-70
2022/11/03 10:03:26;;;;;;;;;;;13.90;99.90;;;;;;5047935;28;20313;-70
2022/11/03 10:05:51;;;;;;;;;;;14.10;99.90;;;;;;5072723;28;19931;-70
2022/11/03 10:08:24;;;;;;;;;;;14.30;99.90;;;;;;5073518;28;19928;-70
2022/11/03 10:10:50;;;;;;;;;;;14.40;99.90;;;;;;5073320;28;19920;-71
2022/11/03 10:13:30;;;;;;;;;;;14.40;99.90;;;;;;5053351;28;20293;-70
2022/11/03 10:15:56;;;;;;;;;;;14.50;99.90;;;;;;5063798;28;19931;-70
2022/11/03 10:18:22;;;;;;;;;;;14.50;99.90;;;;;;5043521;28;19924;-70
2022/11/03 10:20:47;;;;;;;;;;;14.50;99.90;;;;;;5046404;28;19927;-70
2022/11/03 10:23:13;;;;;;;;;;;14.50;99.90;;;;;;5057851;28;19932;-70
2022/11/03 10:25:40;;;;;;;;;;;14.50;99.90;;;;;;5047973;28;19921;-70
2022/11/03 10:28:14;;;;;;;;;;;14.40;99.90;;;;;;5036248;28;19929;-70
2022/11/03 10:30:49;;;;;;;;;;;14.50;99.90;;;;;;5050173;28;20377;-70
2022/11/03 10:33:26;;;;;;;;;;;14.50;99.90;;;;;;5049444;28;20537;-70
2022/11/03 10:35:52;;;;;;;;;;;14.70;99.90;;;;;;5051324;28;19927;-70
2022/11/03 10:38:31;;;;;;;;;;;14.80;99.90;;;;;;5054352;28;19921;-71
2022/11/03 10:41:08;;;;;;;;;;;15.00;99.90;;;;;;5048836;28;19947;-70
2022/11/03 10:43:33;;;;;;;;;;;15.20;99.90;;;;;;5038580;28;20328;-71
2022/11/03 10:46:14;;;;;;;;;;;15.40;99.90;;;;;;5047963;28;19942;-70
2022/11/03 10:48:39;;;;;;;;;;;15.50;99.90;;;;;;5072498;28;19928;-71
2022/11/03 10:51:08;;;;;;;;;;;15.60;99.90;;;;;;5052167;28;19932;-71
2022/11/03 10:53:34;;;;;;;;;;;15.60;99.90;;;;;;5052301;28;20305;-71
2022/11/03 10:55:59;;;;;;;;;;;15.60;99.90;;;;;;5052614;28;19924;-71
2022/11/03 10:58:25;;;;;;;;;;;15.50;99.90;;;;;;5072285;28;19928;-71
2022/11/03 11:00:50;;;;;;;;;;;15.50;99.90;;;;;;5067078;28;19935;-71
2022/11/03 11:03:16;;;;;;;;;;;15.50;99.90;;;;;;5041296;28;19924;-71
2022/11/03 11:05:45;;;;;;;;;;;15.50;99.90;;;;;;5049713;28;20065;-71
2022/11/03 11:08:12;;;;;;;;;;;15.50;99.90;;;;;;5052765;28;19999;-71
2022/11/03 11:10:42;;;;;;;;;;;15.60;99.90;;;;;;5052875;28;20275;-71
2022/11/03 11:13:22;;;;;;;;;;;15.60;99.90;;;;;;5067048;28;20151;-71
2022/11/03 11:15:47;;;;;;;;;;;15.60;99.90;;;;;;5047633;28;19927;-71
2022/11/03 11:18:28;;;;;;;;;;;15.70;99.90;;;;;;5053564;28;19928;-71
2022/11/03 11:20:54;;;;;;;;;;;15.80;99.90;;;;;;5051536;28;19999;-71
2022/11/03 11:23:26;;;;;;;;;;;16.00;99.90;;;;;;5047607;28;20654;-71
2022/11/03 11:26:09;;;;;;;;;;;16.10;99.90;;;;;;5068880;28;19921;-71
2022/11/03 11:28:45;;;;;;;;;;;16.10;99.90;;;;;;5031986;28;19931;-71
2022/11/03 11:31:26;;;;;;;;;;;16.10;99.90;;;;;;5052202;28;20540;-71
2022/11/03 11:34:18;;;;;;;;;;;16.20;99.90;;;;;;5068037;28;19927;-71
2022/11/03 11:36:45;;;;;;;;;;;16.10;99.90;;;;;;5047389;28;19932;-71
2022/11/03 11:39:32;;;;;;;;;;;16.00;99.90;;;;;;5036931;28;20257;-71
2022/11/03 11:42:04;;;;;;;;;;;15.90;99.90;;;;;;5028942;28;19935;-71
2022/11/03 11:44:39;;;;;;;;;;;15.90;99.90;;;;;;5050948;28;19928;-71
2022/11/03 11:47:26;;;;;;;;;;;15.80;99.90;;;;;;5065570;28;19921;-71
2022/11/03 11:50:10;;;;;;;;;;;15.80;99.90;;;;;;5068008;28;19960;-71
2022/11/03 11:52:43;;;;;;;;;;;15.80;99.90;;;;;;5046005;28;19924;-71
2022/11/03 11:55:16;;;;;;;;;;;15.80;99.90;;;;;;5064205;28;19928;-71
2022/11/03 11:57:43;;;;;;;;;;;15.80;99.90;;;;;;5047830;28;19936;-71
2022/11/03 12:00:19;;;;;;;;;;;15.80;99.90;;;;;;5051239;28;19920;-71
2022/11/03 12:02:45;;;;;;;;;;;15.80;99.90;;;;;;5037463;28;19929;-71
2022/11/03 12:05:16;;;;;;;;;;;15.80;99.90;;;;;;5049542;28;20561;-71
2022/11/03 12:07:42;;;;;;;;;;;15.80;99.90;;;;;;5045076;28;19928;-71
2022/11/03 12:10:08;;;;;;;;;;;15.70;99.90;;;;;;5045140;28;19925;-71
2022/11/03 12:12:34;;;;;;;;;;;15.60;99.90;;;;;;5046192;28;19951;-71
2022/11/03 12:14:59;;;;;;;;;;;15.70;99.90;;;;;;5041331;28;20256;-71
2022/11/03 12:17:25;;;;;;;;;;;15.70;99.90;;;;;;5051599;28;19924;-71
2022/11/03 12:19:51;;;;;;;;;;;15.60;99.90;;;;;;5038582;28;19921;-71
2022/11/03 12:22:23;;;;;;;;;;;15.60;99.90;;;;;;5048290;28;19929;-71
2022/11/03 12:24:52;;;;;;;;;;;15.50;99.90;;;;;;5028522;28;19932;-72
2022/11/03 12:27:24;;;;;;;;;;;15.50;99.90;;;;;;5050317;28;20342;-72
2022/11/03 12:29:53;;;;;;;;;;;15.50;99.90;;;;;;5065925;28;19921;-71
2022/11/03 12:32:19;;;;;;;;;;;15.50;99.90;;;;;;5057520;28;19936;-71
2022/11/03 12:34:45;;;;;;;;;;;15.40;99.90;;;;;;5051707;28;20011;-69
2022/11/03 12:37:10;;;;;;;;;;;15.50;99.90;;;;;;5050032;28;19999;-71
2022/11/03 12:39:36;;;;;;;;;;;15.50;99.90;;;;;;5064591;28;19974;-71
2022/11/03 12:42:02;;;;;;;;;;;15.40;99.90;;;;;;5041546;28;20402;-71
2022/11/03 12:44:27;;;;;;;;;;;15.40;99.90;;;;;;5048592;28;19924;-71
2022/11/03 12:46:54;;;;;;;;;;;15.40;99.90;;;;;;5041784;28;19921;-71
2022/11/03 12:49:19;;;;;;;;;;;15.30;99.90;;;;;;5047908;28;19923;-72
2022/11/03 12:51:45;;;;;;;;;;;15.30;99.90;;;;;;5042565;28;19932;-71
2022/11/03 12:54:10;;;;;;;;;;;15.20;99.90;;;;;;5045234;28;19948;-71
2022/11/03 12:56:36;;;;;;;;;;;15.20;99.90;;;;;;5062337;28;19935;-71
2022/11/03 12:59:01;;;;;;;;;;;15.20;99.90;;;;;;5048714;28;19928;-71
2022/11/03 13:01:27;;;;;;;;;;;15.20;99.90;;;;;;5034990;28;19929;-71
2022/11/03 13:03:52;;;;;;;;;;;15.20;99.90;;;;;;5047512;28;19965;-72
2022/11/03 13:06:18;;;;;;;;;;;15.30;99.90;;;;;;5047413;28;19926;-71
2022/11/03 13:08:43;;;;;;;;;;;15.40;99.90;;;;;;5053554;28;20005;-71
2022/11/03 13:13:53;;;;;;;;;;;15.60;99.90;;;;;;5067877;28;20068;-71
2022/11/03 13:16:19;;;;;;;;;;;15.70;99.90;;;;;;5055264;28;20511;-71
2022/11/03 13:18:45;;;;;;;;;;;15.70;99.90;;;;;;5055687;28;19924;-72
2022/11/03 13:21:10;;;;;;;;;;;15.70;99.90;;;;;;5054392;28;20290;-71
2022/11/03 13:23:36;;;;;;;;;;;15.60;99.90;;;;;;5054272;28;19924;-71
2022/11/03 13:26:01;;;;;;;;;;;15.60;99.90;;;;;;5052455;28;20668;-71
2022/11/03 13:28:27;;;;;;;;;;;15.60;99.90;;;;;;5051977;28;19921;-71
2022/11/03 13:30:52;;;;;;;;;;;15.60;99.90;;;;;;5045052;28;19924;-71
2022/11/03 13:33:18;;;;;;;;;;;15.50;99.90;;;;;;5048119;28;19928;-71
2022/11/03 13:35:43;;;;;;;;;;;15.50;99.90;;;;;;5052559;28;19925;-71
2022/11/03 13:38:09;;;;;;;;;;;15.50;99.90;;;;;;5039400;23;20062;-69
2022/11/03 13:40:35;;;;;;;;;;;15.40;99.90;;;;;;5029287;28;20727;-72
2022/11/03 13:43:00;;;;;;;;;;;15.40;99.90;;;;;;5031427;28;19929;-72
2022/11/03 13:45:26;;;;;;;;;;;15.40;99.90;;;;;;5048378;28;19932;-72
2022/11/03 13:47:51;;;;;;;;;;;15.30;99.90;;;;;;5033308;28;19927;-72
2022/11/03 13:50:17;;;;;;;;;;;15.40;99.90;;;;;;5028110;28;19975;-69
2022/11/03 13:52:42;;;;;;;;;;;15.40;99.90;;;;;;5028684;28;19932;-73
2022/11/03 13:55:09;;;;;;;;;;;15.40;99.90;;;;;;5031888;28;19975;-72
2022/11/03 13:57:34;;;;;;;;;;;15.30;99.90;;;;;;5033091;28;19921;-72
2022/11/03 14:00:00;;;;;;;;;;;15.40;99.90;;;;;;5027306;28;19928;-72
2022/11/03 14:02:27;;;;;;;;;;;15.30;99.90;;;;;;5021761;28;19964;-72
2022/11/03 14:04:52;;;;;;;;;;;15.20;99.90;;;;;;5027424;28;20359;-72
2022/11/03 14:07:18;;;;;;;;;;;15.10;99.90;;;;;;5035768;28;19928;-72
2022/11/03 14:09:44;;;;;;;;;;;15.00;99.90;;;;;;5032019;28;20485;-72
2022/11/03 14:14:53;;;;;;;;;;;14.80;99.90;;;;;;5032779;28;20007;-72
2022/11/03 14:17:19;;;;;;;;;;;14.70;99.90;;;;;;5032244;28;20007;-71
2022/11/03 14:19:44;;;;;;;;;;;14.70;99.90;;;;;;5033818;28;20270;-72
2022/11/03 14:22:10;;;;;;;;;;;14.60;99.90;;;;;;5015402;28;19929;-72
2022/11/03 14:24:35;;;;;;;;;;;14.50;99.90;;;;;;5031203;28;19921;-72
2022/11/03 14:27:00;;;;;;;;;;;14.60;99.90;;;;;;5023003;28;19921;-72
2022/11/03 14:29:26;;;;;;;;;;;14.60;99.90;;;;;;5031732;28;19935;-72
2022/11/03 14:31:51;;;;;;;;;;;14.60;99.90;;;;;;5030363;28;19921;-73
2022/11/03 14:34:17;;;;;;;;;;;14.60;99.90;;;;;;5029583;28;20369;-72
2022/11/03 14:36:42;;;;;;;;;;;14.60;99.90;;;;;;5030010;28;19928;-72
2022/11/03 14:39:08;;;;;;;;;;;14.50;99.90;;;;;;5013973;28;19921;-72
2022/11/03 14:44:18;;;;;;;;;;;14.50;99.90;;;;;;5027177;28;20263;-72
2022/11/03 14:46:43;;;;;;;;;;;14.40;99.90;;;;;;5012374;28;20031;-73
2022/11/03 14:49:09;;;;;;;;;;;14.40;99.90;;;;;;5025084;28;19925;-72
2022/11/03 14:51:34;;;;;;;;;;;14.40;99.90;;;;;;5030522;28;20003;-72
2022/11/03 14:53:59;;;;;;;;;;;14.30;99.90;;;;;;5029799;28;20001;-73
2022/11/03 14:56:25;;;;;;;;;;;14.30;99.90;;;;;;5030062;28;20337;-72